createdAt,value
2016-10-19T00:00:00.500Z,45.85
2016-10-19T00:00:41.211Z,45.85
2016-10-19T00:01:21.858Z,45.95
2016-10-19T00:02:02.559Z,46.04
2016-10-19T00:02:43.230Z,45.85
2016-10-19T00:03:23.909Z,45.95
2016-10-19T00:04:04.574Z,45.85
2016-10-19T00:04:45.270Z,45.85
2016-10-19T00:05:25.963Z,45.85
2016-10-19T00:06:06.658Z,45.37
2016-10-19T00:06:47.349Z,46.24
2016-10-19T00:07:28.079Z,46.33
2016-10-19T00:08:08.756Z,46.53
2016-10-19T00:08:49.421Z,46.43
2016-10-19T00:09:30.053Z,46.43
2016-10-19T00:10:10.720Z,46.33
2016-10-19T00:10:51.376Z,46.43
2016-10-19T00:11:32.067Z,46.53
2016-10-19T00:12:12.721Z,46.53
2016-10-19T00:12:53.397Z,46.43
2016-10-19T00:13:34.065Z,46.53
2016-10-19T00:14:14.742Z,46.24
2016-10-19T00:14:55.446Z,46.53
2016-10-19T00:15:36.108Z,46.72
2016-10-19T00:16:16.763Z,46.72
2016-10-19T00:16:57.466Z,46.43
2016-10-19T00:17:38.109Z,46.53
2016-10-19T00:18:18.784Z,46.53
2016-10-19T00:18:59.472Z,46.62
2016-10-19T00:19:40.145Z,46.53
2016-10-19T00:20:20.819Z,46.62
2016-10-19T00:21:01.553Z,46.53
2016-10-19T00:21:42.185Z,46.33
2016-10-19T00:22:22.902Z,46.43
2016-10-19T00:23:03.626Z,46.53
2016-10-19T00:23:44.300Z,46.33
2016-10-19T00:24:24.992Z,46.43
2016-10-19T00:25:05.697Z,46.53
2016-10-19T00:25:46.363Z,46.43
2016-10-19T00:26:27.046Z,46.33
2016-10-19T00:27:07.732Z,46.33
2016-10-19T00:27:49.187Z,46.33
2016-10-19T00:28:29.922Z,46.24
2016-10-19T00:29:10.638Z,46.53
2016-10-19T00:29:51.349Z,46.53
2016-10-19T00:30:32.057Z,46.24
2016-10-19T00:31:12.759Z,46.43
2016-10-19T00:31:53.455Z,46.33
2016-10-19T00:32:34.172Z,46.43
2016-10-19T00:33:14.844Z,46.24
2016-10-19T00:33:56.099Z,46.33
2016-10-19T00:34:36.766Z,46.43
2016-10-19T00:35:17.482Z,46.43
2016-10-19T00:35:58.190Z,46.24
2016-10-19T00:36:38.890Z,46.14
2016-10-19T00:37:19.537Z,46.14
2016-10-19T00:38:00.220Z,46.72
2016-10-19T00:38:40.886Z,46.14
2016-10-19T00:39:21.536Z,45.95
2016-10-19T00:40:02.178Z,46.04
2016-10-19T00:40:42.870Z,46.33
2016-10-19T00:41:23.524Z,46.72
2016-10-19T00:42:04.154Z,46.43
2016-10-19T00:42:44.848Z,46.33
2016-10-19T00:43:25.514Z,46.33
2016-10-19T00:44:06.209Z,46.43
2016-10-19T00:44:46.874Z,46.53
2016-10-19T00:45:27.576Z,46.24
2016-10-19T00:46:08.294Z,46.33
2016-10-19T00:46:49.008Z,45.95
2016-10-19T00:47:29.722Z,46.33
2016-10-19T00:48:10.402Z,46.43
2016-10-19T00:48:51.038Z,46.33
2016-10-19T00:49:31.691Z,46.33
2016-10-19T00:50:12.341Z,46.82
2016-10-19T00:50:53.017Z,46.82
2016-10-19T00:51:33.714Z,46.72
2016-10-19T00:52:14.386Z,46.53
2016-10-19T00:52:55.027Z,46.53
2016-10-19T00:53:35.711Z,46.62
2016-10-19T00:54:16.401Z,46.62
2016-10-19T00:54:57.113Z,46.62
2016-10-19T00:55:37.800Z,46.72
2016-10-19T00:56:19.243Z,46.82
2016-10-19T00:56:59.911Z,46.62
2016-10-19T00:57:40.585Z,47.02
2016-10-19T00:58:21.279Z,46.92
2016-10-19T00:59:01.942Z,46.92
2016-10-19T00:59:42.664Z,46.72
2016-10-19T01:00:23.390Z,46.82
2016-10-19T01:01:04.074Z,46.72
2016-10-19T01:01:44.745Z,46.92
2016-10-19T01:02:25.456Z,46.82
2016-10-19T01:03:06.151Z,47.02
2016-10-19T01:03:46.817Z,46.72
2016-10-19T01:04:27.437Z,46.62
2016-10-19T01:05:08.175Z,46.82
2016-10-19T01:05:48.857Z,46.62
2016-10-19T01:06:29.554Z,46.92
2016-10-19T01:07:10.231Z,47.02
2016-10-19T01:07:50.904Z,46.82
2016-10-19T01:08:31.605Z,46.72
2016-10-19T01:09:12.328Z,46.82
2016-10-19T01:09:53.035Z,46.82
2016-10-19T01:10:33.735Z,46.92
2016-10-19T01:11:14.400Z,46.82
2016-10-19T01:11:55.065Z,46.72
2016-10-19T01:12:35.770Z,47.11
2016-10-19T01:13:16.433Z,46.72
2016-10-19T01:13:57.104Z,46.43
2016-10-19T01:14:37.769Z,47.11
2016-10-19T01:15:18.470Z,46.72
2016-10-19T01:15:59.168Z,46.72
2016-10-19T01:16:39.898Z,46.92
2016-10-19T01:17:20.545Z,46.72
2016-10-19T01:18:01.219Z,47.02
2016-10-19T01:18:41.875Z,46.92
2016-10-19T01:19:22.587Z,46.72
2016-10-19T01:20:03.302Z,47.02
2016-10-19T01:20:43.974Z,47.11
2016-10-19T01:21:24.659Z,47.02
2016-10-19T01:22:05.318Z,47.11
2016-10-19T01:22:46.022Z,47.2
2016-10-19T01:23:26.720Z,47.2
2016-10-19T01:24:07.381Z,47.02
2016-10-19T01:24:48.057Z,47.02
2016-10-19T01:25:28.739Z,47.3
2016-10-19T01:26:09.428Z,47.11
2016-10-19T01:26:50.085Z,47.2
2016-10-19T01:27:30.819Z,46.82
2016-10-19T01:28:12.167Z,47.11
2016-10-19T01:28:52.148Z,47.3
2016-10-19T01:29:32.833Z,47.2
2016-10-19T01:30:13.462Z,47.4
2016-10-19T01:30:54.139Z,47.11
2016-10-19T01:31:34.851Z,47.11
2016-10-19T01:32:15.526Z,47.11
2016-10-19T01:32:56.250Z,47.2
2016-10-19T01:33:36.950Z,47.79
2016-10-19T01:34:17.661Z,47.11
2016-10-19T01:34:58.333Z,47.5
2016-10-19T01:35:39.047Z,47.6
2016-10-19T01:36:19.671Z,47.3
2016-10-19T01:37:00.395Z,47.3
2016-10-19T01:37:41.110Z,47.6
2016-10-19T01:38:21.826Z,47.3
2016-10-19T01:39:02.531Z,47.11
2016-10-19T01:39:43.213Z,47.11
2016-10-19T01:40:23.858Z,47.79
2016-10-19T01:41:04.590Z,47.89
2016-10-19T01:41:45.259Z,47.79
2016-10-19T01:42:25.952Z,47.6
2016-10-19T01:43:06.659Z,47.79
2016-10-19T01:43:47.363Z,47.79
2016-10-19T01:44:28.071Z,47.69
2016-10-19T01:45:08.769Z,47.79
2016-10-19T01:45:49.467Z,47.79
2016-10-19T01:46:30.185Z,47.69
2016-10-19T01:47:10.825Z,47.79
2016-10-19T01:47:51.483Z,47.89
2016-10-19T01:48:32.249Z,47.2
2016-10-19T01:49:12.935Z,47.69
2016-10-19T01:49:53.610Z,47.69
2016-10-19T01:50:34.323Z,47.69
2016-10-19T01:51:14.971Z,47.89
2016-10-19T01:51:55.610Z,47.79
2016-10-19T01:52:36.264Z,47.4
2016-10-19T01:53:16.981Z,47.79
2016-10-19T01:53:57.696Z,47.6
2016-10-19T01:54:38.375Z,47.69
2016-10-19T01:55:19.030Z,47.69
2016-10-19T01:55:59.747Z,47.79
2016-10-19T01:56:40.434Z,47.79
2016-10-19T01:57:21.105Z,47.89
2016-10-19T01:58:01.815Z,47.6
2016-10-19T01:58:42.476Z,47.69
2016-10-19T01:59:23.122Z,47.69
2016-10-19T02:00:03.840Z,47.6
2016-10-19T02:00:44.486Z,47.69
2016-10-19T02:01:25.247Z,47.89
2016-10-19T02:02:05.952Z,47.69
2016-10-19T02:02:46.601Z,47.69
2016-10-19T02:03:27.335Z,47.69
2016-10-19T02:04:08.030Z,47.69
2016-10-19T02:04:48.705Z,47.6
2016-10-19T02:05:29.378Z,47.69
2016-10-19T02:06:10.086Z,47.89
2016-10-19T02:06:50.755Z,47.79
2016-10-19T02:07:31.409Z,47.69
2016-10-19T02:08:12.102Z,47.4
2016-10-19T02:08:52.803Z,47.5
2016-10-19T02:09:33.500Z,47.5
2016-10-19T02:10:14.195Z,48.18
2016-10-19T02:10:54.822Z,47.5
2016-10-19T02:11:35.479Z,47.89
2016-10-19T02:12:16.204Z,48.18
2016-10-19T02:12:56.885Z,47.69
2016-10-19T02:13:37.566Z,47.5
2016-10-19T02:14:18.224Z,47.69
2016-10-19T02:14:58.903Z,47.6
2016-10-19T02:15:39.575Z,47.6
2016-10-19T02:16:20.254Z,47.6
2016-10-19T02:17:00.907Z,47.5
2016-10-19T02:17:41.612Z,47.6
2016-10-19T02:18:22.260Z,48.18
2016-10-19T02:19:02.925Z,48.18
2016-10-19T02:19:43.622Z,47.6
2016-10-19T02:20:24.295Z,47.69
2016-10-19T02:21:04.935Z,48.08
2016-10-19T02:21:45.589Z,47.98
2016-10-19T02:22:26.263Z,47.5
2016-10-19T02:23:06.968Z,48.08
2016-10-19T02:23:47.685Z,48.18
2016-10-19T02:24:28.389Z,47.69
2016-10-19T02:25:09.034Z,47.98
2016-10-19T02:25:49.765Z,47.98
2016-10-19T02:26:30.440Z,47.98
2016-10-19T02:27:11.109Z,47.98
2016-10-19T02:27:51.829Z,47.98
2016-10-19T02:28:32.560Z,47.79
2016-10-19T02:29:13.256Z,47.89
2016-10-19T02:29:53.925Z,48.08
2016-10-19T02:30:34.595Z,48.08
2016-10-19T02:31:15.289Z,48.08
2016-10-19T02:31:55.979Z,47.98
2016-10-19T02:32:36.635Z,48.08
2016-10-19T02:33:17.329Z,47.79
2016-10-19T02:33:58.047Z,47.98
2016-10-19T02:34:38.742Z,48.08
2016-10-19T02:35:19.474Z,48.08
2016-10-19T02:36:00.128Z,48.08
2016-10-19T02:36:40.798Z,47.98
2016-10-19T02:37:21.508Z,47.98
2016-10-19T02:38:02.223Z,47.79
2016-10-19T02:38:42.935Z,48.08
2016-10-19T02:39:23.632Z,47.98
2016-10-19T02:40:04.286Z,48.18
2016-10-19T02:40:44.992Z,47.98
2016-10-19T02:41:25.701Z,48.08
2016-10-19T02:42:06.338Z,47.89
2016-10-19T02:42:46.967Z,47.89
2016-10-19T02:43:27.648Z,47.98
2016-10-19T02:44:08.364Z,47.89
2016-10-19T02:44:49.031Z,47.79
2016-10-19T02:45:29.734Z,47.79
2016-10-19T02:46:10.409Z,48.08
2016-10-19T02:46:51.090Z,47.98
2016-10-19T02:47:31.738Z,48.08
2016-10-19T02:48:12.432Z,48.18
2016-10-19T02:48:53.085Z,47.98
2016-10-19T02:49:33.765Z,48.08
2016-10-19T02:50:15.226Z,47.89
2016-10-19T02:50:55.953Z,47.89
2016-10-19T02:51:36.650Z,47.89
2016-10-19T02:52:17.317Z,47.98
2016-10-19T02:52:57.991Z,47.98
2016-10-19T02:53:38.694Z,47.98
2016-10-19T02:54:19.395Z,47.79
2016-10-19T02:55:00.073Z,47.69
2016-10-19T02:55:40.768Z,47.69
2016-10-19T02:56:21.403Z,48.18
2016-10-19T02:57:02.065Z,47.89
2016-10-19T02:57:42.746Z,47.79
2016-10-19T02:58:23.433Z,47.98
2016-10-19T02:59:04.155Z,48.08
2016-10-19T02:59:44.885Z,48.08
2016-10-19T03:00:25.553Z,47.98
2016-10-19T03:01:06.263Z,48.08
2016-10-19T03:01:46.921Z,48.08
2016-10-19T03:02:27.627Z,47.79
2016-10-19T03:03:08.301Z,47.79
2016-10-19T03:03:48.957Z,47.89
2016-10-19T03:04:29.643Z,48.08
2016-10-19T03:05:10.357Z,48.08
2016-10-19T03:05:51.044Z,48.18
2016-10-19T03:06:31.728Z,48.08
2016-10-19T03:07:12.382Z,48.37
2016-10-19T03:07:53.082Z,47.79
2016-10-19T03:08:33.784Z,47.98
2016-10-19T03:09:14.523Z,47.98
2016-10-19T03:09:55.232Z,48.18
2016-10-19T03:10:35.899Z,47.98
2016-10-19T03:11:16.559Z,48.08
2016-10-19T03:11:57.224Z,47.98
2016-10-19T03:12:37.918Z,47.79
2016-10-19T03:13:18.621Z,47.89
2016-10-19T03:13:59.351Z,47.98
2016-10-19T03:14:40.036Z,47.98
2016-10-19T03:15:20.692Z,47.79
2016-10-19T03:16:01.337Z,48.18
2016-10-19T03:16:42.062Z,47.98
2016-10-19T03:17:22.747Z,47.79
2016-10-19T03:18:03.449Z,47.79
2016-10-19T03:18:44.147Z,48.18
2016-10-19T03:19:24.846Z,47.79
2016-10-19T03:20:05.529Z,48.27
2016-10-19T03:20:46.270Z,48.27
2016-10-19T03:21:26.953Z,48.27
2016-10-19T03:22:07.646Z,47.98
2016-10-19T03:22:48.310Z,48.27
2016-10-19T03:23:28.994Z,47.98
2016-10-19T03:24:09.721Z,47.98
2016-10-19T03:24:50.436Z,48.18
2016-10-19T03:25:31.099Z,48.08
2016-10-19T03:26:11.735Z,47.98
2016-10-19T03:26:52.448Z,48.08
2016-10-19T03:27:33.130Z,47.98
2016-10-19T03:28:13.805Z,48.18
2016-10-19T03:28:54.480Z,48.08
2016-10-19T03:29:35.133Z,48.18
2016-10-19T03:30:15.760Z,48.27
2016-10-19T03:30:56.435Z,48.08
2016-10-19T03:31:37.096Z,48.27
2016-10-19T03:32:17.803Z,47.98
2016-10-19T03:32:58.450Z,48.37
2016-10-19T03:33:39.114Z,48.27
2016-10-19T03:34:19.810Z,48.47
2016-10-19T03:35:00.468Z,48.18
2016-10-19T03:35:41.167Z,48.18
2016-10-19T03:36:21.837Z,48.47
2016-10-19T03:37:02.579Z,48.08
2016-10-19T03:37:43.292Z,48.18
2016-10-19T03:38:23.969Z,48.08
2016-10-19T03:39:04.682Z,48.27
2016-10-19T03:39:45.375Z,48.27
2016-10-19T03:40:26.057Z,48.08
2016-10-19T03:41:06.694Z,48.08
2016-10-19T03:41:47.385Z,47.98
2016-10-19T03:42:28.096Z,48.08
2016-10-19T03:43:08.755Z,48.18
2016-10-19T03:43:49.424Z,48.18
2016-10-19T03:44:30.152Z,48.37
2016-10-19T03:45:10.856Z,48.27
2016-10-19T03:45:51.535Z,48.18
2016-10-19T03:46:32.262Z,48.18
2016-10-19T03:47:12.967Z,47.89
2016-10-19T03:47:53.626Z,48.27
2016-10-19T03:48:34.297Z,48.18
2016-10-19T03:49:14.997Z,48.27
2016-10-19T03:49:55.696Z,48.37
2016-10-19T03:50:36.352Z,48.18
2016-10-19T03:51:17.038Z,48.37
2016-10-19T03:51:57.689Z,48.66
2016-10-19T03:52:38.382Z,48.27
2016-10-19T03:53:19.068Z,48.08
2016-10-19T03:53:59.740Z,48.18
2016-10-19T03:54:40.432Z,48.08
2016-10-19T03:55:21.108Z,48.37
2016-10-19T03:56:01.798Z,48.18
2016-10-19T03:56:42.496Z,48.18
2016-10-19T03:57:23.237Z,48.18
2016-10-19T03:58:03.898Z,48.27
2016-10-19T03:58:44.521Z,48.27
2016-10-19T03:59:25.155Z,48.18
2016-10-19T04:00:05.822Z,48.08
2016-10-19T04:00:46.581Z,48.18
2016-10-19T04:01:27.280Z,48.37
2016-10-19T04:02:07.974Z,48.27
2016-10-19T04:02:48.675Z,48.18
2016-10-19T04:03:29.377Z,48.18
2016-10-19T04:04:10.017Z,48.47
2016-10-19T04:04:50.709Z,48.27
2016-10-19T04:05:31.393Z,48.47
2016-10-19T04:06:12.067Z,48.27
2016-10-19T04:06:52.772Z,48.47
2016-10-19T04:07:33.456Z,48.08
2016-10-19T04:08:14.144Z,48.18
2016-10-19T04:08:54.857Z,48.66
2016-10-19T04:09:35.489Z,48.47
2016-10-19T04:10:16.163Z,48.18
2016-10-19T04:10:56.843Z,48.27
2016-10-19T04:11:37.509Z,48.47
2016-10-19T04:12:18.165Z,48.47
2016-10-19T04:12:58.871Z,48.37
2016-10-19T04:13:39.530Z,48.57
2016-10-19T04:14:20.210Z,48.66
2016-10-19T04:15:00.920Z,48.47
2016-10-19T04:15:41.615Z,48.57
2016-10-19T04:16:22.330Z,48.47
2016-10-19T04:17:03.010Z,48.18
2016-10-19T04:17:43.703Z,48.18
2016-10-19T04:18:24.413Z,48.47
2016-10-19T04:19:05.067Z,48.66
2016-10-19T04:19:45.717Z,48.18
2016-10-19T04:20:26.408Z,48.76
2016-10-19T04:21:07.088Z,48.66
2016-10-19T04:21:47.742Z,48.47
2016-10-19T04:22:28.467Z,48.57
2016-10-19T04:23:09.109Z,48.27
2016-10-19T04:23:49.820Z,48.18
2016-10-19T04:24:30.500Z,48.47
2016-10-19T04:25:11.175Z,48.57
2016-10-19T04:25:51.857Z,48.47
2016-10-19T04:26:32.560Z,48.18
2016-10-19T04:27:13.232Z,48.37
2016-10-19T04:27:53.935Z,48.37
2016-10-19T04:28:34.670Z,48.66
2016-10-19T04:29:15.375Z,48.37
2016-10-19T04:29:56.032Z,48.57
2016-10-19T04:30:36.745Z,48.18
2016-10-19T04:31:17.462Z,48.18
2016-10-19T04:31:58.135Z,48.47
2016-10-19T04:32:38.836Z,48.47
2016-10-19T04:33:19.486Z,48.37
2016-10-19T04:34:00.195Z,48.37
2016-10-19T04:34:40.836Z,48.47
2016-10-19T04:35:21.539Z,48.47
2016-10-19T04:36:02.245Z,48.66
2016-10-19T04:36:42.906Z,48.66
2016-10-19T04:37:23.609Z,48.57
2016-10-19T04:38:04.253Z,48.47
2016-10-19T04:38:44.933Z,47.98
2016-10-19T04:39:25.614Z,48.47
2016-10-19T04:40:06.327Z,48.37
2016-10-19T04:40:46.976Z,48.47
2016-10-19T04:41:27.658Z,48.76
2016-10-19T04:42:08.355Z,48.47
2016-10-19T04:42:49.049Z,48.66
2016-10-19T04:43:29.711Z,48.66
2016-10-19T04:44:10.410Z,48.66
2016-10-19T04:44:51.130Z,48.47
2016-10-19T04:45:31.778Z,48.47
2016-10-19T04:46:12.499Z,48.37
2016-10-19T04:46:53.203Z,48.47
2016-10-19T04:47:33.865Z,48.47
2016-10-19T04:48:14.546Z,48.37
2016-10-19T04:48:55.256Z,48.76
2016-10-19T04:49:35.946Z,48.47
2016-10-19T04:50:16.657Z,48.57
2016-10-19T04:50:57.366Z,48.47
2016-10-19T04:51:37.991Z,48.76
2016-10-19T04:52:18.684Z,48.57
2016-10-19T04:52:59.336Z,48.57
2016-10-19T04:53:40.014Z,48.18
2016-10-19T04:54:20.694Z,48.37
2016-10-19T04:55:01.335Z,48.66
2016-10-19T04:55:42.031Z,48.47
2016-10-19T04:56:22.757Z,48.66
2016-10-19T04:57:03.413Z,48.76
2016-10-19T04:57:44.114Z,48.47
2016-10-19T04:58:24.794Z,48.85
2016-10-19T04:59:05.482Z,48.47
2016-10-19T04:59:46.147Z,48.66
2016-10-19T05:00:26.860Z,48.47
2016-10-19T05:01:07.543Z,48.37
2016-10-19T05:01:48.220Z,48.37
2016-10-19T05:02:28.922Z,48.66
2016-10-19T05:03:09.660Z,48.37
2016-10-19T05:03:50.300Z,48.18
2016-10-19T05:04:31.061Z,48.66
2016-10-19T05:05:11.734Z,48.66
2016-10-19T05:05:52.418Z,48.76
2016-10-19T05:06:33.101Z,48.57
2016-10-19T05:07:13.802Z,48.76
2016-10-19T05:07:54.444Z,48.66
2016-10-19T05:08:35.129Z,48.66
2016-10-19T05:09:15.841Z,48.66
2016-10-19T05:09:56.490Z,48.37
2016-10-19T05:10:37.172Z,48.18
2016-10-19T05:11:17.859Z,48.37
2016-10-19T05:11:58.523Z,48.18
2016-10-19T05:12:39.202Z,48.37
2016-10-19T05:13:19.951Z,48.08
2016-10-19T05:14:00.628Z,48.37
2016-10-19T05:14:41.250Z,48.27
2016-10-19T05:15:21.990Z,48.47
2016-10-19T05:16:02.664Z,48.57
2016-10-19T05:16:43.350Z,48.57
2016-10-19T05:17:24.044Z,48.47
2016-10-19T05:18:04.750Z,48.18
2016-10-19T05:18:45.439Z,48.76
2016-10-19T05:19:26.180Z,48.37
2016-10-19T05:20:06.810Z,48.57
2016-10-19T05:20:47.504Z,48.37
2016-10-19T05:21:28.145Z,48.18
2016-10-19T05:22:08.810Z,48.27
2016-10-19T05:22:49.489Z,48.18
2016-10-19T05:23:30.192Z,48.18
2016-10-19T05:24:10.860Z,48.66
2016-10-19T05:24:51.539Z,48.18
2016-10-19T05:25:32.204Z,48.27
2016-10-19T05:26:12.905Z,48.37
2016-10-19T05:26:53.610Z,48.37
2016-10-19T05:27:34.290Z,48.37
2016-10-19T05:28:14.984Z,48.47
2016-10-19T05:28:55.615Z,48.85
2016-10-19T05:29:36.347Z,48.47
2016-10-19T05:30:17.037Z,48.37
2016-10-19T05:30:57.703Z,48.18
2016-10-19T05:31:38.378Z,48.18
2016-10-19T05:32:19.055Z,48.27
2016-10-19T05:32:59.753Z,48.66
2016-10-19T05:33:40.428Z,48.37
2016-10-19T05:34:21.139Z,48.47
2016-10-19T05:35:01.837Z,48.27
2016-10-19T05:35:42.483Z,48.08
2016-10-19T05:36:23.118Z,48.18
2016-10-19T05:37:03.788Z,48.27
2016-10-19T05:37:44.470Z,48.08
2016-10-19T05:38:25.141Z,48.18
2016-10-19T05:39:05.800Z,48.18
2016-10-19T05:39:46.527Z,48.47
2016-10-19T05:40:27.240Z,48.47
2016-10-19T05:41:07.925Z,48.47
2016-10-19T05:41:48.676Z,47.98
2016-10-19T05:42:29.304Z,47.98
2016-10-19T05:43:10.038Z,48.27
2016-10-19T05:43:50.744Z,48.08
2016-10-19T05:44:31.413Z,48.47
2016-10-19T05:45:12.092Z,48.27
2016-10-19T05:45:52.761Z,48.27
2016-10-19T05:46:33.444Z,48.27
2016-10-19T05:47:14.115Z,47.98
2016-10-19T05:47:54.780Z,48.37
2016-10-19T05:48:35.447Z,48.18
2016-10-19T05:49:16.142Z,48.08
2016-10-19T05:49:56.828Z,48.18
2016-10-19T05:50:37.500Z,48.08
2016-10-19T05:51:18.207Z,48.18
2016-10-19T05:51:58.851Z,48.37
2016-10-19T05:52:39.527Z,48.27
2016-10-19T05:53:20.240Z,48.18
2016-10-19T05:54:00.950Z,47.98
2016-10-19T05:54:41.614Z,48.08
2016-10-19T05:55:22.335Z,48.27
2016-10-19T05:56:03.012Z,48.18
2016-10-19T05:56:43.673Z,48.18
2016-10-19T05:57:24.378Z,48.37
2016-10-19T05:58:05.076Z,48.37
2016-10-19T05:58:45.780Z,48.08
2016-10-19T05:59:26.458Z,48.18
2016-10-19T06:00:07.138Z,48.08
2016-10-19T06:00:47.810Z,48.18
2016-10-19T06:01:28.607Z,47.98
2016-10-19T06:02:09.298Z,48.47
2016-10-19T06:02:49.999Z,48.08
2016-10-19T06:03:30.733Z,48.27
2016-10-19T06:04:11.449Z,47.98
2016-10-19T06:04:52.146Z,48.08
2016-10-19T06:05:32.864Z,48.37
2016-10-19T06:06:13.605Z,48.37
2016-10-19T06:06:54.294Z,48.18
2016-10-19T06:07:35.001Z,47.98
2016-10-19T06:08:15.686Z,48.08
2016-10-19T06:08:56.352Z,48.08
2016-10-19T06:09:37.016Z,48.08
2016-10-19T06:10:17.675Z,48.18
2016-10-19T06:10:58.379Z,48.18
2016-10-19T06:11:39.075Z,47.89
2016-10-19T06:12:19.785Z,47.79
2016-10-19T06:13:00.491Z,47.98
2016-10-19T06:13:41.168Z,48.27
2016-10-19T06:14:21.883Z,48.08
2016-10-19T06:15:02.585Z,47.98
2016-10-19T06:15:43.269Z,47.89
2016-10-19T06:16:24.017Z,48.08
2016-10-19T06:17:04.753Z,48.18
2016-10-19T06:17:45.435Z,47.89
2016-10-19T06:18:26.190Z,47.98
2016-10-19T06:19:06.890Z,47.79
2016-10-19T06:19:47.625Z,48.47
2016-10-19T06:21:45.899Z,50.99
2016-10-19T06:22:26.597Z,51.37
2016-10-19T06:23:07.265Z,50.31
2016-10-19T06:23:47.920Z,50.48
2016-10-19T06:24:28.599Z,50.38
2016-10-19T06:25:09.276Z,50.09
2016-10-19T06:25:50.008Z,49.41
2016-10-19T06:26:30.721Z,48.74
2016-10-19T06:27:11.459Z,48.54
2016-10-19T06:27:52.117Z,48.15
2016-10-19T06:28:32.834Z,48.06
2016-10-19T06:29:13.486Z,47.67
2016-10-19T06:29:54.135Z,46.97
2016-10-19T06:30:34.842Z,46.77
2016-10-19T06:31:15.493Z,46.09
2016-10-19T06:31:56.156Z,45.9
2016-10-19T06:32:36.886Z,46.29
2016-10-19T06:33:17.588Z,45.42
2016-10-19T06:33:58.285Z,45.78
2016-10-19T06:34:38.970Z,46.05
2016-10-19T06:35:19.676Z,46.25
2016-10-19T06:36:00.315Z,46.15
2016-10-19T06:36:41.049Z,46.34
2016-10-19T06:37:21.703Z,46.61
2016-10-19T06:38:02.420Z,46.83
2016-10-19T06:38:43.115Z,46.44
2016-10-19T06:39:23.838Z,46.05
2016-10-19T06:40:04.547Z,46.22
2016-10-19T06:40:45.272Z,46.22
2016-10-19T06:41:25.959Z,45.66
2016-10-19T06:42:06.639Z,46.32
2016-10-19T06:42:47.299Z,46.7
2016-10-19T06:43:27.990Z,46.32
2016-10-19T06:44:08.697Z,46.22
2016-10-19T06:44:49.434Z,45.74
2016-10-19T06:45:30.151Z,46.32
2016-10-19T06:46:10.828Z,45.83
2016-10-19T06:46:51.534Z,45.74
2016-10-19T06:47:32.218Z,45.64
2016-10-19T06:48:12.935Z,45.45
2016-10-19T06:48:53.613Z,45.16
2016-10-19T06:49:34.345Z,45.16
2016-10-19T06:50:15.063Z,45.54
2016-10-19T06:50:55.781Z,45.16
2016-10-19T06:51:36.478Z,44.56
2016-10-19T06:52:17.179Z,45.62
2016-10-19T06:52:57.899Z,44.94
2016-10-19T06:53:38.657Z,45.04
2016-10-19T06:54:19.303Z,44.84
2016-10-19T06:54:59.997Z,44.84
2016-10-19T06:55:40.714Z,44.65
2016-10-19T06:56:21.433Z,44.46
2016-10-19T06:57:02.125Z,44.56
2016-10-19T06:57:42.856Z,44.46
2016-10-19T06:58:23.546Z,45.42
2016-10-19T06:59:04.238Z,44.56
2016-10-19T06:59:44.900Z,44.46
2016-10-19T07:00:25.644Z,44.46
2016-10-19T07:01:06.304Z,44.34
2016-10-19T07:01:47.008Z,44.82
2016-10-19T07:02:27.646Z,45.21
2016-10-19T07:03:08.359Z,45.31
2016-10-19T07:03:49.070Z,45.11
2016-10-19T07:04:29.813Z,45.31
2016-10-19T07:05:10.489Z,45.76
2016-10-19T07:05:51.204Z,45.01
2016-10-19T07:06:31.869Z,45.21
2016-10-19T07:07:12.532Z,45.48
2016-10-19T07:07:53.173Z,45.38
2016-10-19T07:08:33.820Z,45.18
2016-10-19T07:09:14.524Z,45
2016-10-19T07:09:55.181Z,45.48
2016-10-19T07:10:35.923Z,45.18
2016-10-19T07:11:16.606Z,45.28
2016-10-19T07:11:57.314Z,45.76
2016-10-19T07:12:37.980Z,46.34
2016-10-19T07:13:18.709Z,46.25
2016-10-19T07:13:59.423Z,45.48
2016-10-19T07:14:40.126Z,45.28
2016-10-19T07:15:20.782Z,45.38
2016-10-19T07:16:01.445Z,45.48
2016-10-19T07:16:42.145Z,45.18
2016-10-19T07:17:22.854Z,45.09
2016-10-19T07:18:03.580Z,45.18
2016-10-19T07:18:44.354Z,45.18
2016-10-19T07:19:25.045Z,45.09
2016-10-19T07:20:05.743Z,48.47
2016-10-19T07:20:46.434Z,50.31
2016-10-19T07:21:27.100Z,50.01
2016-10-19T07:22:07.844Z,50.89
2016-10-19T07:22:48.608Z,50.98
2016-10-19T07:23:29.197Z,51.1
2016-10-19T07:24:09.869Z,52.43
2016-10-19T07:24:50.586Z,53.2
2016-10-19T07:25:31.291Z,53.59
2016-10-19T07:26:12.026Z,53.78
2016-10-19T07:26:52.709Z,54.07
2016-10-19T07:27:33.451Z,54.36
2016-10-19T07:28:14.203Z,53.49
2016-10-19T07:28:54.887Z,53.52
2016-10-19T07:29:35.574Z,53.91
2016-10-19T07:30:17.260Z,53.71
2016-10-19T07:30:57.947Z,53.91
2016-10-19T07:31:38.705Z,54.1
2016-10-19T07:32:19.447Z,53.91
2016-10-19T07:33:00.138Z,53.81
2016-10-19T07:33:40.826Z,53.71
2016-10-19T07:34:21.508Z,53.74
2016-10-19T07:35:02.153Z,53.16
2016-10-19T07:35:42.830Z,52.58
2016-10-19T07:36:23.476Z,52
2016-10-19T07:37:04.130Z,51.32
2016-10-19T07:37:44.832Z,51.44
2016-10-19T07:38:25.523Z,51.15
2016-10-19T07:39:06.234Z,51.44
2016-10-19T07:39:46.932Z,50.38
2016-10-19T07:40:28.372Z,50.38
2016-10-19T07:41:09.123Z,50.09
2016-10-19T07:41:49.847Z,50.12
2016-10-19T07:42:30.510Z,49.92
2016-10-19T07:43:11.415Z,49.51
2016-10-19T07:43:52.199Z,49.51
2016-10-19T07:44:32.857Z,48.86
2016-10-19T07:45:13.532Z,48.47
2016-10-19T07:45:54.186Z,48.47
2016-10-19T07:46:34.895Z,48.08
2016-10-19T07:47:15.560Z,48.18
2016-10-19T07:47:56.284Z,48.18
2016-10-19T07:48:36.996Z,47.79
2016-10-19T07:49:17.713Z,47.69
2016-10-19T07:49:58.355Z,48.08
2016-10-19T07:50:39.089Z,47.89
2016-10-19T07:51:19.837Z,48.18
2016-10-19T07:52:00.559Z,47.52
2016-10-19T07:52:41.210Z,47.72
2016-10-19T07:53:21.976Z,46.94
2016-10-19T07:54:02.664Z,47.04
2016-10-19T07:54:43.409Z,47.04
2016-10-19T07:55:24.202Z,46.75
2016-10-19T07:56:04.980Z,46.66
2016-10-19T07:56:45.765Z,47.04
2016-10-19T07:57:26.459Z,46.66
2016-10-19T07:58:07.175Z,46.66
2016-10-19T07:58:47.887Z,46.08
2016-10-19T07:59:28.579Z,46.08
2016-10-19T08:00:09.268Z,46.17
2016-10-19T08:00:49.979Z,46.17
2016-10-19T08:01:30.650Z,46.17
2016-10-19T08:02:11.325Z,46.36
2016-10-19T08:02:52.013Z,46.46
2016-10-19T08:03:32.637Z,45.98
2016-10-19T08:04:14.805Z,46.39
2016-10-19T08:04:55.487Z,46.29
2016-10-19T08:05:36.176Z,45.61
2016-10-19T08:06:16.900Z,45.42
2016-10-19T08:06:57.745Z,45.3
2016-10-19T08:07:39.360Z,45.2
2016-10-19T08:08:20.117Z,45.2
2016-10-19T08:09:00.850Z,45.49
2016-10-19T08:09:41.547Z,44.91
2016-10-19T08:10:22.585Z,45.2
2016-10-19T08:11:03.342Z,45.2
2016-10-19T08:11:44.078Z,45.68
2016-10-19T08:12:24.803Z,45.2
2016-10-19T08:13:05.439Z,45.01
2016-10-19T08:13:46.289Z,45.3
2016-10-19T08:14:28.603Z,45.1
2016-10-19T08:15:09.598Z,45.2
2016-10-19T08:15:50.386Z,44.62
2016-10-19T08:16:31.040Z,44.62
2016-10-19T08:17:11.781Z,44.45
2016-10-19T08:17:52.901Z,44.45
2016-10-19T08:18:33.568Z,44.64
2016-10-19T08:19:15.212Z,44.54
2016-10-19T08:19:55.958Z,44.16
2016-10-19T08:20:36.674Z,44.54
2016-10-19T08:21:17.383Z,44.74
2016-10-19T08:21:58.139Z,44.16
2016-10-19T08:22:38.838Z,44.35
2016-10-19T08:23:21.454Z,44.45
2016-10-19T08:24:02.173Z,44.26
2016-10-19T08:24:42.902Z,44.45
2016-10-19T08:25:23.653Z,44.06
2016-10-19T08:26:04.369Z,44.16
2016-10-19T08:26:45.097Z,44.35
2016-10-19T08:27:25.883Z,44.35
2016-10-19T08:28:06.613Z,44.26
2016-10-19T08:28:47.301Z,44.16
2016-10-19T08:29:28.804Z,43.77
2016-10-19T08:30:09.511Z,43.96
2016-10-19T08:30:50.154Z,44.06
2016-10-19T08:31:30.870Z,44.06
2016-10-19T08:32:11.557Z,43.77
2016-10-19T08:32:52.275Z,43.68
2016-10-19T08:33:33.013Z,43.58
2016-10-19T08:34:13.695Z,43.29
2016-10-19T08:34:55.033Z,43.77
2016-10-19T08:35:35.164Z,43.58
2016-10-19T08:36:15.904Z,43.58
2016-10-19T08:36:56.624Z,43.38
2016-10-19T08:37:37.317Z,43.29
2016-10-19T08:38:17.990Z,43.38
2016-10-19T08:38:58.673Z,43.09
2016-10-19T08:39:39.379Z,42.51
2016-10-19T08:40:20.097Z,42.9
2016-10-19T08:41:00.883Z,42.9
2016-10-19T08:41:41.585Z,42.9
2016-10-19T08:42:22.257Z,42.8
2016-10-19T08:43:02.925Z,42.41
2016-10-19T08:43:43.597Z,42.51
2016-10-19T08:44:24.316Z,42.13
2016-10-19T08:45:04.965Z,42.13
2016-10-19T08:45:45.636Z,42.22
2016-10-19T08:48:48.165Z,42.41